createdAt,value
2017-10-12T00:00:02.141Z,69.40
2017-10-12T00:02:30.517Z,69.20
2017-10-12T00:04:58.077Z,69.20
2017-10-12T00:07:25.656Z,69.20
2017-10-12T00:09:53.274Z,69.30
2017-10-12T00:12:20.889Z,69.40
2017-10-12T00:14:48.469Z,69.30
2017-10-12T00:17:16.793Z,69.30
2017-10-12T00:19:44.377Z,69.60
2017-10-12T00:22:11.968Z,69.40
2017-10-12T00:24:40.316Z,69.30
2017-10-12T00:27:07.905Z,69.60
2017-10-12T00:29:35.493Z,69.40
2017-10-12T00:32:03.137Z,69.40
2017-10-12T00:34:30.697Z,69.40
2017-10-12T00:36:58.279Z,69.30
2017-10-12T00:39:26.121Z,69.40
2017-10-12T00:41:53.678Z,69.40
2017-10-12T00:44:22.150Z,69.40
2017-10-12T00:46:49.733Z,69.30
2017-10-12T00:49:17.289Z,69.60
2017-10-12T00:51:44.901Z,69.50
2017-10-12T00:54:12.493Z,69.30
2017-10-12T00:56:40.071Z,69.30
2017-10-12T00:59:07.697Z,69.60
2017-10-12T01:01:35.305Z,69.60
2017-10-12T01:04:02.872Z,69.60
2017-10-12T01:06:30.445Z,69.40
2017-10-12T01:08:58.056Z,69.30
2017-10-12T01:11:25.944Z,69.20
2017-10-12T01:13:53.552Z,69.40
2017-10-12T01:16:21.145Z,69.50
2017-10-12T01:18:48.709Z,69.30
2017-10-12T01:21:16.334Z,69.60
2017-10-12T01:23:44.765Z,69.60
2017-10-12T01:26:12.428Z,69.50
2017-10-12T01:28:40.069Z,69.10
2017-10-12T01:31:07.705Z,69.40
2017-10-12T01:33:35.333Z,69.40
2017-10-12T01:36:02.949Z,69.60
2017-10-12T01:38:30.616Z,69.50
2017-10-12T01:40:58.233Z,69.30
2017-10-12T01:43:25.825Z,69.30
2017-10-12T01:45:53.469Z,69.30
2017-10-12T01:48:32.848Z,69.30
2017-10-12T01:51:00.501Z,69.50
2017-10-12T01:53:28.095Z,69.30
2017-10-12T01:55:55.680Z,69.40
2017-10-12T01:58:23.313Z,69.20
2017-10-12T02:00:50.951Z,69.20
2017-10-12T02:03:18.557Z,69.20
2017-10-12T02:05:46.925Z,69.40
2017-10-12T02:08:14.496Z,69.40
2017-10-12T02:10:42.093Z,69.40
2017-10-12T02:13:09.678Z,69.20
2017-10-12T02:15:37.309Z,69.30
2017-10-12T02:18:04.945Z,69.30
2017-10-12T02:20:32.582Z,69.30
2017-10-12T02:23:00.180Z,69.30
2017-10-12T02:25:28.552Z,69.20
2017-10-12T02:27:56.181Z,69.10
2017-10-12T02:30:23.769Z,69.20
2017-10-12T02:32:51.357Z,69.20
2017-10-12T02:35:18.961Z,69.30
2017-10-12T02:37:46.560Z,69.30
2017-10-12T02:40:14.157Z,69.30
2017-10-12T02:42:41.801Z,69.20
2017-10-12T02:45:09.421Z,69.30
2017-10-12T02:47:37.024Z,68.90
2017-10-12T02:50:04.666Z,69.10
2017-10-12T02:52:32.280Z,69.10
2017-10-12T02:54:59.886Z,69.20
2017-10-12T02:57:27.497Z,69.20
2017-10-12T02:59:55.529Z,69.10
2017-10-12T03:02:23.130Z,69.20
2017-10-12T03:04:50.716Z,69.00
2017-10-12T03:07:18.334Z,69.30
2017-10-12T03:09:45.922Z,69.10
2017-10-12T03:12:13.566Z,69.20
2017-10-12T03:14:41.126Z,68.90
2017-10-12T03:17:08.753Z,69.10
2017-10-12T03:19:36.361Z,68.90
2017-10-12T03:22:03.944Z,69.20
2017-10-12T03:24:31.553Z,69.00
2017-10-12T03:26:59.161Z,69.30
2017-10-12T03:29:26.713Z,68.70
2017-10-12T03:31:54.266Z,69.10
2017-10-12T03:34:21.849Z,69.20
2017-10-12T03:36:49.453Z,69.10
2017-10-12T03:39:17.014Z,69.10
2017-10-12T03:41:44.645Z,69.10
2017-10-12T03:44:12.269Z,69.10
2017-10-12T03:46:39.906Z,69.10
2017-10-12T03:49:07.541Z,69.10
2017-10-12T03:51:35.132Z,69.00
2017-10-12T03:54:02.744Z,68.60
2017-10-12T03:56:30.352Z,68.70
2017-10-12T03:58:57.952Z,68.90
2017-10-12T04:01:25.533Z,68.70
2017-10-12T04:04:03.746Z,69.00
2017-10-12T04:06:41.459Z,68.90
2017-10-12T04:09:18.183Z,69.00
2017-10-12T04:11:45.764Z,68.90
2017-10-12T04:14:13.321Z,68.80
2017-10-12T04:16:40.901Z,68.70
2017-10-12T04:19:08.453Z,68.80
2017-10-12T04:21:36.033Z,68.80
2017-10-12T04:24:03.616Z,68.80
2017-10-12T04:26:31.197Z,68.60
2017-10-12T04:28:58.780Z,68.80
2017-10-12T04:31:26.364Z,68.50
2017-10-12T04:33:53.917Z,68.70
2017-10-12T04:36:21.493Z,68.80
2017-10-12T04:38:49.957Z,68.70
2017-10-12T04:41:17.538Z,68.70
2017-10-12T04:43:45.097Z,68.60
2017-10-12T04:46:12.701Z,68.80
2017-10-12T04:48:41.069Z,68.70
2017-10-12T04:51:08.652Z,68.60
2017-10-12T04:53:36.261Z,68.70
2017-10-12T04:56:03.845Z,68.70
2017-10-12T04:58:31.409Z,68.60
2017-10-12T05:00:58.993Z,68.70
2017-10-12T05:03:26.568Z,68.60
2017-10-12T05:05:54.149Z,68.60
2017-10-12T05:08:21.730Z,68.40
2017-10-12T05:10:49.291Z,68.50
2017-10-12T05:13:16.865Z,68.60
2017-10-12T05:15:44.486Z,68.40
2017-10-12T05:18:12.070Z,68.40
2017-10-12T05:20:39.652Z,68.20
2017-10-12T05:23:08.089Z,68.40
2017-10-12T05:25:35.649Z,68.60
2017-10-12T05:28:03.220Z,68.60
2017-10-12T05:30:30.853Z,68.50
2017-10-12T05:32:58.438Z,68.30
2017-10-12T05:35:26.018Z,68.30
2017-10-12T05:37:53.624Z,68.40
2017-10-12T05:40:21.764Z,68.20
2017-10-12T05:42:49.345Z,68.30
2017-10-12T05:45:17.709Z,68.10
2017-10-12T05:47:45.261Z,68.30
2017-10-12T05:50:13.609Z,68.10
2017-10-12T05:52:41.213Z,68.20
2017-10-12T05:55:09.569Z,68.50
2017-10-12T05:57:37.177Z,68.40
2017-10-12T06:00:04.785Z,68.10
2017-10-12T06:02:32.393Z,68.00
2017-10-12T06:05:00.010Z,68.10
2017-10-12T06:07:27.589Z,68.00
2017-10-12T06:09:55.205Z,68.10
2017-10-12T06:12:22.792Z,67.20
2017-10-12T06:14:50.401Z,65.20
2017-10-12T06:17:18.009Z,64.70
2017-10-12T06:19:45.585Z,63.60
2017-10-12T06:22:13.889Z,63.70
2017-10-12T06:24:41.500Z,62.90
2017-10-12T06:27:09.589Z,62.90
2017-10-12T06:29:37.201Z,62.20
2017-10-12T06:32:04.777Z,62.20
2017-10-12T06:34:32.329Z,61.60
2017-10-12T06:36:59.920Z,61.50
2017-10-12T06:39:27.470Z,61.30
2017-10-12T06:41:55.102Z,61.50
2017-10-12T06:44:23.613Z,61.40
2017-10-12T06:46:51.174Z,61.60
2017-10-12T06:49:18.757Z,60.90
2017-10-12T06:51:46.369Z,61.50
2017-10-12T06:54:13.988Z,61.40
2017-10-12T06:56:41.549Z,60.70
2017-10-12T06:59:09.157Z,60.50
2017-10-12T07:01:36.763Z,61.10
2017-10-12T07:04:04.325Z,60.70
2017-10-12T07:06:31.933Z,60.60
2017-10-12T07:08:59.490Z,61.20
2017-10-12T07:11:27.069Z,61.30
2017-10-12T07:13:54.657Z,61.30
2017-10-12T07:16:22.257Z,61.20
2017-10-12T07:18:49.820Z,61.20
2017-10-12T07:21:17.433Z,61.00
2017-10-12T07:23:44.985Z,61.70
2017-10-12T07:26:12.569Z,60.60
2017-10-12T07:28:40.214Z,61.10
2017-10-12T07:31:08.521Z,60.40
2017-10-12T07:33:36.098Z,60.70
2017-10-12T07:36:04.499Z,62.60
2017-10-12T07:38:32.057Z,62.60
2017-10-12T07:40:59.637Z,61.80
2017-10-12T07:43:27.241Z,62.10
2017-10-12T07:45:54.825Z,62.10
2017-10-12T07:48:22.826Z,64.50
2017-10-12T07:50:50.433Z,62.40
2017-10-12T07:53:18.794Z,62.50
2017-10-12T07:55:46.356Z,62.40
2017-10-12T07:58:13.982Z,63.20
2017-10-12T08:00:42.162Z,64.30
2017-10-12T08:03:09.722Z,64.60
2017-10-12T08:05:37.333Z,63.20
2017-10-12T08:08:05.554Z,64.10
2017-10-12T08:10:33.111Z,63.40
2017-10-12T08:13:00.704Z,63.60
2017-10-12T08:15:29.036Z,62.20
2017-10-12T08:17:57.054Z,62.20
2017-10-12T08:20:24.768Z,62.10
2017-10-12T08:22:52.352Z,63.70
2017-10-12T08:25:19.966Z,63.80
2017-10-12T08:27:47.577Z,63.20
2017-10-12T08:30:15.138Z,63.00
2017-10-12T08:32:42.721Z,63.00
2017-10-12T08:35:10.321Z,61.20
2017-10-12T08:37:37.879Z,60.40
2017-10-12T08:40:05.442Z,63.20
2017-10-12T08:42:33.025Z,60.30
2017-10-12T08:45:00.585Z,62.70
2017-10-12T08:47:28.177Z,63.50
2017-10-12T08:49:56.289Z,62.20
2017-10-12T08:52:23.873Z,61.00
2017-10-12T08:54:51.461Z,61.30
2017-10-12T08:57:19.046Z,62.30
2017-10-12T08:59:46.629Z,63.20
2017-10-12T09:02:14.189Z,63.80
2017-10-12T09:04:41.801Z,64.50
2017-10-12T09:07:09.382Z,64.20
2017-10-12T09:09:36.941Z,64.50
2017-10-12T09:12:04.530Z,64.50
2017-10-12T09:14:32.121Z,64.50
2017-10-12T09:17:00.723Z,64.70
2017-10-12T09:19:28.313Z,64.70
2017-10-12T09:21:55.874Z,64.90
2017-10-12T09:24:23.445Z,65.00
2017-10-12T09:26:51.085Z,65.10
2017-10-12T09:29:18.725Z,65.10
2017-10-12T09:31:46.957Z,65.10
2017-10-12T09:34:14.585Z,65.10
2017-10-12T09:36:42.220Z,65.20
2017-10-12T09:39:09.837Z,65.10
2017-10-12T09:41:37.501Z,65.20
2017-10-12T09:44:05.603Z,65.30
2017-10-12T09:46:33.217Z,65.30
2017-10-12T09:49:00.830Z,65.20
2017-10-12T09:51:28.471Z,65.30
2017-10-12T09:53:56.069Z,65.40
2017-10-12T09:56:23.649Z,65.40
2017-10-12T09:58:51.298Z,65.10
2017-10-12T10:01:18.913Z,65.30
2017-10-12T10:03:47.033Z,64.40
2017-10-12T10:06:14.629Z,64.60
2017-10-12T10:08:42.221Z,64.90
2017-10-12T10:11:10.761Z,65.00
2017-10-12T10:13:39.085Z,65.10
2017-10-12T10:16:06.670Z,65.10
2017-10-12T10:18:34.272Z,64.00
2017-10-12T10:21:01.833Z,64.80
2017-10-12T10:23:29.440Z,64.90
2017-10-12T19:16:54.298Z,63.80
2017-10-12T19:19:21.858Z,64.00
2017-10-12T19:21:49.451Z,63.90
2017-10-12T19:24:17.114Z,63.70
2017-10-12T19:26:44.734Z,63.50
2017-10-12T19:29:12.391Z,63.60
2017-10-12T19:31:40.033Z,63.40
2017-10-12T19:34:07.678Z,63.50
2017-10-12T19:36:35.266Z,63.60
2017-10-12T19:39:02.938Z,63.70
2017-10-12T19:41:30.517Z,63.70
2017-10-12T19:43:58.107Z,63.90
2017-10-12T19:46:25.698Z,64.10
2017-10-12T19:48:53.278Z,64.10
2017-10-12T19:51:27.782Z,64.20
2017-10-12T19:53:49.258Z,64.30
2017-10-12T19:56:16.847Z,64.30
2017-10-12T20:01:15.568Z,64.40
2017-10-12T20:03:46.134Z,64.40
2017-10-12T20:06:15.224Z,64.40
2017-10-12T20:08:42.879Z,64.30
2017-10-12T20:13:38.903Z,64.40
2017-10-12T20:16:07.221Z,64.30
2017-10-12T20:18:34.896Z,65.00
2017-10-12T20:21:02.542Z,64.20
2017-10-12T20:23:31.099Z,64.20
2017-10-12T20:25:59.940Z,64.20
2017-10-12T20:28:29.202Z,64.20
2017-10-12T20:30:56.806Z,64.20
2017-10-12T20:33:26.033Z,64.20
2017-10-12T20:35:55.207Z,64.20
2017-10-12T20:38:25.093Z,64.20
2017-10-12T20:40:55.386Z,64.30
2017-10-12T20:43:25.044Z,64.10
2017-10-12T20:45:55.688Z,64.10
2017-10-12T20:48:23.928Z,64.00
2017-10-12T20:50:51.538Z,63.90
2017-10-12T20:53:19.161Z,64.00
2017-10-12T20:55:46.729Z,63.90
2017-10-12T20:58:14.285Z,64.00
2017-10-12T21:00:41.927Z,64.00
2017-10-12T21:03:09.494Z,63.90
2017-10-12T21:05:37.087Z,63.60
2017-10-12T21:08:04.693Z,63.50
2017-10-12T21:10:32.254Z,63.70
2017-10-12T21:12:59.841Z,63.60
2017-10-12T21:15:27.478Z,63.60
2017-10-12T21:17:55.073Z,63.60
2017-10-12T21:20:22.658Z,63.60
2017-10-12T21:22:50.274Z,63.50
2017-10-12T21:25:17.873Z,63.50
2017-10-12T21:27:46.143Z,63.60
2017-10-12T21:30:13.931Z,63.70
2017-10-12T21:32:42.931Z,63.60
2017-10-12T21:35:15.193Z,63.50
2017-10-12T21:37:49.856Z,63.50
2017-10-12T21:40:18.551Z,63.60
2017-10-12T21:42:47.893Z,63.80
2017-10-12T21:45:17.471Z,64.10
2017-10-12T21:47:45.337Z,64.30
2017-10-12T21:50:13.623Z,64.30
2017-10-12T21:52:46.858Z,64.40
2017-10-12T21:55:14.441Z,64.40
2017-10-12T21:57:42.018Z,64.30
2017-10-12T22:00:10.405Z,64.60
2017-10-12T22:02:38.019Z,63.80
2017-10-12T22:05:05.586Z,63.40
2017-10-12T22:07:33.525Z,63.50
2017-10-12T22:10:01.113Z,63.50
2017-10-12T22:12:28.676Z,63.40
2017-10-12T22:14:56.286Z,63.40
2017-10-12T22:17:23.877Z,63.50
2017-10-12T22:19:51.465Z,63.50
2017-10-12T22:22:19.080Z,63.80
2017-10-12T22:24:46.673Z,64.50
2017-10-12T22:27:14.267Z,64.30
2017-10-12T22:29:42.282Z,64.80
2017-10-12T22:32:10.553Z,64.50
2017-10-12T22:34:38.709Z,64.70
2017-10-12T22:37:06.326Z,64.70
2017-10-12T22:39:33.905Z,64.70
2017-10-12T22:42:02.285Z,64.50
2017-10-12T22:44:29.929Z,64.40
2017-10-12T22:47:07.367Z,64.20
2017-10-12T22:49:35.564Z,64.50
2017-10-12T22:52:03.157Z,64.70
2017-10-12T22:54:30.729Z,64.80
2017-10-12T22:56:58.366Z,64.60
2017-10-12T23:01:31.748Z,64.10
2017-10-12T23:03:59.345Z,64.60
2017-10-12T23:06:27.693Z,64.50
2017-10-12T23:08:55.781Z,64.40
2017-10-12T23:11:23.394Z,64.40
2017-10-12T23:13:50.953Z,64.60
2017-10-12T23:16:18.562Z,64.60
2017-10-12T23:18:46.924Z,64.50
2017-10-12T23:21:14.514Z,64.80
2017-10-12T23:23:42.100Z,64.30
2017-10-12T23:26:09.685Z,64.70
2017-10-12T23:28:37.264Z,64.80
2017-10-12T23:31:04.849Z,64.70
2017-10-12T23:33:32.449Z,64.70
2017-10-12T23:36:00.755Z,64.70
2017-10-12T23:38:28.357Z,64.60
2017-10-12T23:40:55.949Z,64.70
2017-10-12T23:43:23.508Z,64.60
2017-10-12T23:45:51.068Z,64.80
2017-10-12T23:48:18.684Z,64.80
2017-10-12T23:50:47.034Z,64.30
2017-10-12T23:53:14.599Z,64.70
2017-10-12T23:55:42.205Z,65.00
2017-10-12T23:58:09.769Z,64.90
